• Join FlightAware (Why Join?)
  • Login
  • US Flag 
12:09AM EDT


 

Airport Tracker/Info


-or-


 

Live Flight TrackerFlight Track Log ✈ ACA831 ✈ 17-Aug-2013 ✈ CYUL - CYYZ

Flight Track Log - Related Links

Times and Time Zones

All times are in EDT time to prevent confusion due to time zone crossing. See the ACA831 flight status page for this flight to view local times or setup timezone preferences in your user account.

Time Position Orientation Groundspeed Altitude Reporting Facility
EDT Latitude Longitude Course Direction KTS MPH feet Rate Location/Type
04:38PM 45.4680 -73.7260 180° South 105 121  Level FlightAware
04:38PM 45.4610 -73.7350 222° Southwest 160 184 1,500 Level FlightAware
04:38PM 45.4500 -73.7500 224° Southwest 158 182 900 2,700 Climbing FlightAware
04:39PM 45.4380 -73.7640 219° Southwest 179 206 1,800 2,400 Climbing FlightAware
04:39PM 45.4280 -73.7770 222° Southwest 201 231 2,300 2,520 Climbing FlightAware
04:39PM 45.4120 -73.7960 220° Southwest 225 259 3,300 3,300 Climbing FlightAware
04:40PM 45.3960 -73.8180 224° Southwest 246 283 4,500 3,600 Climbing FlightAware
04:40PM 45.3880 -73.8390 242° Southwest 259 298 5,400 3,840 Climbing FlightAware
04:40PM 45.3860 -73.8540 259° West 263 303 6,100 4,380 Climbing FlightAware
04:40PM 45.3880 -73.8880 275° West 268 308 7,600 4,560 Climbing FlightAware
04:41PM 45.3920 -73.9240 279° West 275 316 9,000 4,020 Climbing FlightAware
04:41PM 45.3950 -73.9860 274° West 302 348 11,100 3,000 Climbing FlightAware
04:42PM 45.3980 -74.0630 273° West 351 404 12,500 3,000 Climbing FlightAware
04:42PM 45.4010 -74.1460 273° West 368 423 14,600 3,780 Climbing FlightAware
04:43PM 45.4050 -74.2370 274° West 379 436 17,100 3,720 Climbing FlightAware
04:44PM 45.4080 -74.3300 273° West 393 452 19,200 3,060 Climbing FlightAware
04:44PM 45.4100 -74.3760 274° West 404 465 21,200 3,000 Climbing FlightAware
04:45PM 45.3950 -74.5370 262° West 421 484 23,200 3,000 Climbing FlightAware
04:46PM 45.3790 -74.6330 257° West 432 497 24,800 2,640 Climbing FlightAware
04:46PM 45.3620 -74.7310 256° West 443 510 26,300 2,400 Climbing FlightAware
04:47PM 45.3420 -74.8460 256° West 454 522 27,800 2,280 Climbing FlightAware
04:47PM 45.3270 -74.9350 257° West 463 533 29,000 2,700 Climbing FlightAware
04:48PM 45.3100 -75.0330 256° West 456 525 30,700 2,880 Climbing FlightAware
04:49PM 45.2900 -75.1500 256° West 450 518 32,600 2,220 Climbing FlightAware
04:49PM 45.2720 -75.2510 256° West 454 522 33,500 1,200 Climbing FlightAware
04:50PM 45.2540 -75.3520 256° West 447 514 34,000 420 Climbing FlightAware
04:50PM 45.2400 -75.4370 257° West 442 509 34,000  Level FlightAware
04:51PM 45.2200 -75.5470 256° West 440 506 34,000  Level FlightAware
04:51PM 45.2050 -75.6330 256° West 441 507 34,000  Level FlightAware
04:52PM 45.1870 -75.7320 256° West 444 511 34,000  Level FlightAware
04:53PM 45.1670 -75.8450 256° West 448 516 34,000  Level FlightAware
04:53PM 45.1520 -75.9280 256° West 448 516 34,000  Level FlightAware
04:54PM 45.1340 -76.0290 256° West 448 516 34,000  Level FlightAware
04:55PM 45.1110 -76.1550 256° West 449 517 34,000  Level FlightAware
04:55PM 45.0830 -76.2640 250° West 453 521 34,000  Level FlightAware
04:56PM 45.0460 -76.3610 242° Southwest 455 524 34,000  Level FlightAware
04:56PM 45.0070 -76.4610 241° Southwest 454 522 34,000  Level FlightAware
04:57PM 44.9660 -76.5610 240° Southwest 454 522 34,000  Level FlightAware
04:58PM 44.9250 -76.6660 241° Southwest 454 522 34,000  Level FlightAware
04:58PM 44.8910 -76.7500 240° Southwest 454 522 34,000  Level FlightAware
04:59PM 44.8520 -76.8480 241° Southwest 453 521 34,000 -600 Level FlightAware
05:00PM 44.8150 -76.9390 240° Southwest 455 524 33,300 -1,320 Descending FlightAware
05:00PM 44.7800 -77.0270 241° Southwest 458 527 32,500 -1,380 Descending FlightAware
05:01PM 44.7430 -77.1180 240° Southwest 461 531 31,700 -1,140 Descending FlightAware
05:01PM 44.7060 -77.2100 241° Southwest 456 525 31,200 -960 Descending FlightAware
05:02PM 44.6760 -77.2820 240° Southwest 452 520 30,700 -960 Descending FlightAware
05:02PM 44.6340 -77.3840 240° Southwest 448 516 30,100 -960 Descending FlightAware
05:03PM 44.5970 -77.4740 240° Southwest 446 513 29,500 -960 Descending FlightAware
05:04PM 44.5570 -77.5710 240° Southwest 444 511 28,900 -900 Descending FlightAware
05:04PM 44.5220 -77.6540 239° Southwest 442 509 28,400 -1,320 Descending FlightAware
05:05PM 44.4850 -77.7450 240° Southwest 433 498 27,400 -2,100 Descending FlightAware
05:05PM 44.4510 -77.8270 240° Southwest 428 493 26,000 -2,280 Descending FlightAware
05:06PM 44.4190 -77.9030 239° Southwest 421 484 24,800 -2,340 Descending FlightAware
05:07PM 44.3810 -77.9950 240° Southwest 414 476 23,300 -2,340 Descending FlightAware
05:07PM 44.3460 -78.0790 240° Southwest 406 467 21,900 -2,280 Descending FlightAware
05:08PM 44.3160 -78.1510 240° Southwest 400 460 20,700 -2,400 Descending FlightAware
05:08PM 44.2820 -78.2300 239° Southwest 393 452 19,300 -2,340 Descending FlightAware
05:09PM 44.2510 -78.3050 240° Southwest 387 445 18,000 -2,400 Descending FlightAware
05:10PM 44.2180 -78.3820 239° Southwest 387 445 16,500 -2,340 Descending FlightAware
05:10PM 44.1890 -78.4500 239° Southwest 379 436 15,300 -2,040 Descending FlightAware
05:11PM 44.1570 -78.5230 239° Southwest 371 427 14,100 -1,440 Descending FlightAware
05:11PM 44.1220 -78.6070 240° Southwest 350 403 13,500 -1,320 Descending FlightAware
05:12PM 44.0980 -78.6610 238° Southwest 341 392 12,600 -2,040 Descending FlightAware
05:12PM 44.0720 -78.7220 239° Southwest 339 390 11,300 -2,160 Descending FlightAware
05:13PM 44.0410 -78.7930 239° Southwest 333 383 10,100 -1,680 Descending FlightAware
05:13PM 44.0290 -78.8140 232° Southwest 310 357 9,900 -540 Descending FlightAware
05:14PM 44.0080 -78.8460 228° Southwest 284 327 9,800 -480 Descending FlightAware
05:14PM 43.9920 -78.8710 228° Southwest 267 307 9,600 -1,080 Descending FlightAware
05:14PM 43.9710 -78.9030 228° Southwest 262 302 9,000 -1,080 Descending FlightAware
05:15PM 43.9550 -78.9280 228° Southwest 254 292 8,800 -720 Descending FlightAware
05:15PM 43.9430 -78.9450 226° Southwest 248 285 8,600 -1,080 Descending FlightAware
05:15PM 43.9270 -78.9680 226° Southwest 243 280 8,200 -1,380 Descending FlightAware
05:16PM 43.9160 -78.9860 230° Southwest 242 278 7,800 -1,380 Descending FlightAware
05:16PM 43.9000 -79.0080 225° Southwest 241 277 7,400 -1,200 Descending FlightAware
05:16PM 43.8890 -79.0250 228° Southwest 240 276 7,100 -1,200 Descending FlightAware
05:17PM 43.8710 -79.0530 228° Southwest 238 274 6,600 -1,200 Descending FlightAware
05:17PM 43.8660 -79.0670 244° Southwest 238 274 6,400 -1,200 Descending FlightAware
05:17PM 43.8650 -79.0750 260° West 239 275 6,300 -1,200 Descending FlightAware
05:17PM 43.8640 -79.0820 259° West 239 275 6,200 -1,080 Descending FlightAware
05:17PM 43.8650 -79.1280 272° West 239 275 5,700 -1,020 Descending FlightAware
05:18PM 43.8660 -79.1640 272° West 236 272 5,300 -1,200 Descending FlightAware
05:18PM 43.8670 -79.1890 273° West 236 272 4,900 -900 Descending FlightAware
05:18PM 43.8680 -79.2230 272° West 232 267 4,700 -300 Descending FlightAware
05:19PM 43.8690 -79.2480 273° West 230 265 4,700  Level FlightAware
05:19PM 43.8690 -79.2760 270° West 215 247 4,700 -420 Level FlightAware
05:19PM 43.8690 -79.2900 270° West 210 242 4,500 -900 Descending FlightAware
05:19PM 43.8670 -79.3030 258° West 206 237 4,400 -1,320 Descending FlightAware
05:19PM 43.8660 -79.3090 257° West 205 236 4,200 -1,200 Descending FlightAware
05:20PM 43.8510 -79.3350 231° Southwest 204 235 3,800 -1,080 Descending FlightAware
05:20PM 43.8420 -79.3500 230° Southwest 198 228 3,500 -1,200 Descending FlightAware
05:20PM 43.8330 -79.3630 226° Southwest 199 229 3,200 -1,200 Descending FlightAware
05:21PM 43.8170 -79.3860 226° Southwest 199 229 2,700 -720 Descending FlightAware
05:21PM 43.8050 -79.4040 227° Southwest 201 231 2,700  Level FlightAware
05:21PM 43.7950 -79.4190 227° Southwest 203 234 2,700  Level FlightAware
05:22PM 43.7820 -79.4380 227° Southwest 191 220 2,700  Level FlightAware
05:22PM 43.7700 -79.4540 224° Southwest 177 204 2,700  Level FlightAware
05:22PM 43.7590 -79.4700 226° Southwest 176 203 2,700 -360 Level FlightAware
05:23PM 43.7500 -79.4840 228° Southwest 181 208 2,500 -1,080 Descending FlightAware
05:23PM 43.7390 -79.5000 226° Southwest 178 205 2,100 -1,080 Descending FlightAware
05:23PM 43.7310 -79.5120 227° Southwest 174 200 1,900 -900 Descending FlightAware
05:24PM 43.7170 -79.5320 226° Southwest 166 191 1,500 -900 Descending FlightAware
05:24PM 43.7090 -79.5430 225° Southwest 152 175 1,300 -720 Descending FlightAware
05:24PM 43.7010 -79.5560 230° Southwest 142 163 1,100 -720 Descending FlightAware
05:25PM 43.6890 -79.5730 226° Southwest 145 167 800 -840 Descending FlightAware
05:25PM 43.6800 -79.5860 226° Southwest 146 168 500 -600 Descending FlightAware
05:25PM 43.6740 -79.5940 224° Southwest 146 168 400 -300 Descending FlightAware
05:26PM 43.6640 -79.6090 227° Southwest 120 138 -1,500 Descending FlightAware
05:26PM 43.6550 -79.6230 228° Southwest 120 138  Level FlightAware